UAL1333 KBOS-KDEN
Flight info
| Callsign | UAL1333 |
|---|---|
| Flight time | N/A |
| Altitude | 36000 |
| Route | HYLND7 HYLND HANAA Q816 OMRAK/N0457F380 Q816 HOCKE Q935 MONEE IANNA ONL PORDR AALLE4 |
| Aircraft | B737/M-SDE2E3FGHIRWXY/LB1 |
Departure
| Time | 2026-05-08 00:25 |
|---|---|
| Airport | Boston Logan International Airport (KBOS) |
Arrival
| Time | N/A |
|---|---|
| Airport | Denver International Airport (KDEN) |
| Time | Latitude | Longitude | Altitude | Speed | Heading |
|---|---|---|---|---|---|
| 2026-05-08 00:03 | 42.36044 | -71.01699 | 6 ft | 0 kts | 289° |
| 2026-05-08 00:15 | 42.36044 | -71.01695 | 24 ft | 2 kts | 289° |
| 2026-05-08 00:15 | 42.36037 | -71.01673 | 28 ft | 3 kts | 292° |
| 2026-05-08 00:15 | 42.36029 | -71.01647 | 28 ft | 3 kts | 296° |
| 2026-05-08 00:15 | 42.36019 | -71.01624 | 27 ft | 3 kts | 306° |
| 2026-05-08 00:16 | 42.36006 | -71.01604 | 25 ft | 3 kts | 331° |
| 2026-05-08 00:16 | 42.35993 | -71.01599 | 26 ft | 1 kts | 17° |
| 2026-05-08 00:16 | 42.35991 | -71.01599 | 26 ft | 1 kts | 19° |
| 2026-05-08 00:17 | 42.35994 | -71.01598 | 26 ft | 1 kts | 19° |
| 2026-05-08 00:18 | 42.36009 | -71.01591 | 29 ft | 5 kts | 19° |
| 2026-05-08 00:18 | 42.36052 | -71.01570 | 26 ft | 9 kts | 19° |
| 2026-05-08 00:18 | 42.36125 | -71.01535 | 24 ft | 13 kts | 19° |
| 2026-05-08 00:18 | 42.36180 | -71.01443 | 28 ft | 15 kts | 77° |
| 2026-05-08 00:19 | 42.36266 | -71.01369 | 27 ft | 15 kts | 19° |
| 2026-05-08 00:19 | 42.36318 | -71.01283 | 24 ft | 13 kts | 109° |
| 2026-05-08 00:19 | 42.36271 | -71.01166 | 27 ft | 15 kts | 120° |
| 2026-05-08 00:19 | 42.36220 | -71.01022 | 24 ft | 19 kts | 111° |
| 2026-05-08 00:20 | 42.36166 | -71.00849 | 24 ft | 21 kts | 119° |
| 2026-05-08 00:20 | 42.36107 | -71.00662 | 26 ft | 21 kts | 109° |
| 2026-05-08 00:20 | 42.36058 | -71.00473 | 25 ft | 21 kts | 109° |
| 2026-05-08 00:20 | 42.36012 | -71.00291 | 27 ft | 20 kts | 109° |
| 2026-05-08 00:21 | 42.35986 | -71.00187 | 27 ft | 10 kts | 109° |
| 2026-05-08 00:21 | 42.35956 | -71.00094 | 24 ft | 14 kts | 122° |
| 2026-05-08 00:21 | 42.35872 | -70.99969 | 27 ft | 21 kts | 134° |
| 2026-05-08 00:21 | 42.35766 | -70.99827 | 27 ft | 21 kts | 135° |
| 2026-05-08 00:22 | 42.35664 | -70.99691 | 26 ft | 20 kts | 135° |
| 2026-05-08 00:22 | 42.35568 | -70.99564 | 28 ft | 19 kts | 135° |
| 2026-05-08 00:22 | 42.35496 | -70.99460 | 26 ft | 11 kts | 117° |
| 2026-05-08 00:22 | 42.35494 | -70.99374 | 24 ft | 3 kts | 74° |
| 2026-05-08 00:23 | 42.35496 | -70.99365 | 24 ft | 1 kts | 74° |
| 2026-05-08 00:23 | 42.35513 | -70.99306 | 26 ft | 13 kts | 51° |
| 2026-05-08 00:23 | 42.35576 | -70.99315 | 24 ft | 0 kts | 315° |
| 2026-05-08 00:24 | 42.35668 | -70.99438 | 24 ft | 53 kts | 315° |
| 2026-05-08 00:25 | 42.36102 | -71.00021 | 23 ft | 120 kts | 315° |
| 2026-05-08 00:25 | 42.36796 | -71.00979 | 197 ft | 158 kts | 310° |
| 2026-05-08 00:25 | 42.37632 | -71.02044 | 813 ft | 175 kts | 317° |
| 2026-05-08 00:25 | 42.38496 | -71.03258 | 1664 ft | 172 kts | 303° |
| 2026-05-08 00:26 | 42.39124 | -71.04650 | 2529 ft | 184 kts | 300° |
| 2026-05-08 00:26 | 42.39807 | -71.06292 | 2835 ft | 217 kts | 299° |
| 2026-05-08 00:26 | 42.40590 | -71.08174 | 3390 ft | 234 kts | 299° |
| 2026-05-08 00:26 | 42.41618 | -71.09912 | 3815 ft | 241 kts | 324° |
| 2026-05-08 00:27 | 42.43107 | -71.10957 | 4306 ft | 242 kts | 334° |
| 2026-05-08 00:27 | 42.44711 | -71.11833 | 4702 ft | 255 kts | 337° |
| 2026-05-08 00:27 | 42.46143 | -71.12575 | 5535 ft | 256 kts | 337° |
| 2026-05-08 00:28 | 42.47832 | -71.13468 | 6494 ft | 260 kts | 336° |
| 2026-05-08 00:28 | 42.49522 | -71.14378 | 7413 ft | 262 kts | 335° |
| 2026-05-08 00:28 | 42.51229 | -71.15301 | 8301 ft | 266 kts | 336° |